Terminal Aerodrome Forecast
Issued by NWS

Home | Current Version | Previous Version | Text Only | Print | Product List | Glossary On
Versions: 1 2 3 4 5 6 7 8 9 10 11 12 13
000
FTUS42 KFFC 231128
TAFRYY
TAF
KRYY 231128Z 2312/2412 08008KT 5SM -RA BR OVC006
     FM231400 10012G20KT 5SM -SHRA BR OVC007
     FM232300 15009G18KT 6SM BR VCSH OVC009
     FM240500 19008KT 4SM BR OVC007=

USA.gov is the U.S. government's official web portal to all federal, state and local government web resources and services.